createdAt,value
2023-05-04T00:00:08.055Z,18.20
2023-05-04T00:02:34.929Z,18.20
2023-05-04T00:05:01.788Z,18.20
2023-05-04T00:07:28.494Z,18.20
2023-05-04T00:09:55.054Z,18.20
2023-05-04T00:12:21.628Z,18.20
2023-05-04T00:14:48.596Z,18.40
2023-05-04T00:17:15.127Z,18.20
2023-05-04T00:19:42.842Z,18.20
2023-05-04T00:22:09.480Z,18.80
2023-05-04T00:24:36.216Z,18.10
2023-05-04T00:27:02.890Z,18.20
2023-05-04T00:29:30.145Z,18.80
2023-05-04T00:31:57.186Z,18.10
2023-05-04T00:34:24.233Z,18.20
2023-05-04T00:36:50.803Z,18.10
2023-05-04T00:39:17.867Z,18.10
2023-05-04T00:41:45.709Z,18.10
2023-05-04T00:44:12.561Z,18.10
2023-05-04T00:46:39.337Z,18.10
2023-05-04T00:49:06.224Z,18.10
2023-05-04T00:51:33.330Z,18.10
2023-05-04T00:54:00.074Z,18.10
2023-05-04T00:56:27.472Z,18.30
2023-05-04T00:58:54.701Z,18.70
2023-05-04T01:01:24.626Z,18.20
2023-05-04T01:03:51.947Z,18.20
2023-05-04T01:06:21.377Z,18.30
2023-05-04T01:08:57.868Z,18.30
2023-05-04T01:11:32.387Z,18.30
2023-05-04T01:14:00.055Z,18.30
2023-05-04T01:16:26.669Z,18.40
2023-05-04T01:18:53.267Z,18.20
2023-05-04T01:21:19.818Z,18.20
2023-05-04T01:23:46.569Z,18.20
2023-05-04T01:26:13.111Z,18.20
2023-05-04T01:28:42.562Z,18.80
2023-05-04T01:31:09.903Z,18.20
2023-05-04T01:33:37.158Z,18.20
2023-05-04T01:36:04.076Z,18.20
2023-05-04T01:38:31.058Z,18.20
2023-05-04T01:40:57.647Z,18.10
2023-05-04T01:43:24.371Z,18.20
2023-05-04T01:45:51.019Z,18.30
2023-05-04T01:48:17.563Z,18.10
2023-05-04T01:50:44.250Z,18.30
2023-05-04T01:53:10.864Z,18.10
2023-05-04T01:55:37.635Z,18.10
2023-05-04T01:58:04.203Z,18.10
2023-05-04T02:00:30.883Z,18.80
2023-05-04T02:02:57.479Z,18.30
2023-05-04T02:05:24.097Z,18.10
2023-05-04T02:07:50.761Z,18.10
2023-05-04T02:10:17.315Z,18.10
2023-05-04T02:12:43.896Z,18.10
2023-05-04T02:15:10.832Z,18.10
2023-05-04T02:17:37.428Z,18.10
2023-05-04T02:20:05.207Z,18.10
2023-05-04T02:22:32.598Z,18.10
2023-05-04T02:24:59.135Z,18.10
2023-05-04T02:27:25.819Z,18.10
2023-05-04T02:29:52.351Z,18.10
2023-05-04T02:32:18.932Z,18.10
2023-05-04T02:34:45.491Z,18.00
2023-05-04T02:37:12.043Z,18.00
2023-05-04T02:39:38.862Z,18.10
2023-05-04T02:42:06.032Z,18.00
2023-05-04T02:44:32.615Z,18.00
2023-05-04T02:46:59.166Z,18.20
2023-05-04T02:49:26.233Z,18.00
2023-05-04T02:51:52.824Z,18.00
2023-05-04T02:54:19.397Z,18.00
2023-05-04T02:56:45.962Z,18.00
2023-05-04T02:59:12.558Z,18.00
2023-05-04T03:01:39.247Z,18.00
2023-05-04T03:04:06.828Z,18.00
2023-05-04T03:06:33.545Z,18.00
2023-05-04T03:09:00.108Z,18.00
2023-05-04T03:11:26.773Z,18.00
2023-05-04T03:13:53.383Z,18.00
2023-05-04T03:16:20.710Z,18.20
2023-05-04T03:18:59.539Z,18.70
2023-05-04T03:21:26.136Z,18.00
2023-05-04T03:23:52.720Z,18.00
2023-05-04T03:26:19.296Z,18.00
2023-05-04T03:28:45.853Z,18.00
2023-05-04T03:31:12.425Z,18.00
2023-05-04T03:33:39.029Z,18.00
2023-05-04T03:36:05.688Z,18.00
2023-05-04T03:38:32.784Z,18.00
2023-05-04T03:40:59.350Z,18.00
2023-05-04T03:43:25.971Z,17.90
2023-05-04T03:45:52.538Z,18.00
2023-05-04T03:48:19.119Z,18.00
2023-05-04T03:50:45.708Z,18.00
2023-05-04T03:53:12.273Z,18.00
2023-05-04T03:55:39.059Z,17.90
2023-05-04T03:58:05.707Z,18.00
2023-05-04T04:00:32.452Z,17.90
2023-05-04T04:02:59.199Z,18.00
2023-05-04T04:05:25.870Z,17.90
2023-05-04T04:07:52.436Z,18.00
2023-05-04T04:10:19.118Z,17.90
2023-05-04T04:12:45.746Z,17.90
2023-05-04T04:15:12.547Z,17.90
2023-05-04T04:17:39.170Z,17.90
2023-05-04T04:20:06.380Z,17.90
2023-05-04T04:22:33.276Z,17.90
2023-05-04T04:24:59.842Z,17.90
2023-05-04T04:27:26.555Z,17.90
2023-05-04T04:29:53.138Z,17.90
2023-05-04T04:32:21.139Z,18.00
2023-05-04T04:34:47.830Z,17.90
2023-05-04T04:37:14.403Z,17.90
2023-05-04T04:39:41.136Z,17.90
2023-05-04T04:42:07.771Z,18.00
2023-05-04T04:44:34.848Z,18.00
2023-05-04T04:47:01.974Z,18.00
2023-05-04T04:49:28.838Z,18.00
2023-05-04T04:51:55.450Z,18.10
2023-05-04T04:54:22.041Z,18.10
2023-05-04T04:56:48.658Z,18.20
2023-05-04T04:59:15.228Z,18.00
2023-05-04T05:01:42.237Z,18.10
2023-05-04T05:04:08.921Z,17.90
2023-05-04T05:06:35.729Z,18.10
2023-05-04T05:09:02.691Z,18.00
2023-05-04T05:11:29.274Z,18.10
2023-05-04T05:13:56.102Z,18.10
2023-05-04T05:16:22.865Z,18.10
2023-05-04T05:18:49.450Z,18.50
2023-05-04T05:21:16.001Z,18.10
2023-05-04T05:23:42.670Z,18.10
2023-05-04T05:26:09.291Z,18.10
2023-05-04T05:28:35.871Z,18.10
2023-05-04T05:31:02.683Z,18.10
2023-05-04T05:33:29.264Z,18.10
2023-05-04T05:35:56.199Z,18.10
2023-05-04T05:38:22.785Z,18.10
2023-05-04T05:40:49.575Z,18.10
2023-05-04T05:43:16.245Z,18.10
2023-05-04T05:45:43.079Z,18.10
2023-05-04T05:48:09.811Z,18.10
2023-05-04T05:50:36.498Z,18.30
2023-05-04T05:53:03.086Z,18.10
2023-05-04T05:55:29.682Z,18.10
2023-05-04T05:57:56.256Z,18.10
2023-05-04T06:00:22.907Z,18.20
2023-05-04T06:02:49.522Z,18.10
2023-05-04T06:05:16.377Z,18.20
2023-05-04T06:07:42.955Z,18.20
2023-05-04T06:10:10.511Z,18.20
2023-05-04T06:12:37.094Z,18.20
2023-05-04T06:15:03.873Z,18.20
2023-05-04T06:17:30.493Z,18.20
2023-05-04T06:19:57.179Z,18.10
2023-05-04T06:22:23.779Z,18.00
2023-05-04T06:24:50.365Z,18.10
2023-05-04T06:27:16.978Z,18.10
2023-05-04T06:29:43.586Z,18.20
2023-05-04T06:32:10.376Z,18.20
2023-05-04T06:34:37.084Z,18.30
2023-05-04T06:37:03.665Z,18.30
2023-05-04T06:39:30.816Z,18.50
2023-05-04T06:41:57.392Z,18.50
2023-05-04T06:44:24.015Z,18.50
2023-05-04T06:46:51.280Z,18.80
2023-05-04T06:49:18.127Z,18.60
2023-05-04T06:51:44.794Z,18.70
2023-05-04T06:54:11.703Z,18.60
2023-05-04T06:56:39.577Z,18.70
2023-05-04T06:59:06.327Z,18.70
2023-05-04T07:01:32.944Z,18.80
2023-05-04T07:03:59.640Z,18.70
2023-05-04T07:06:29.524Z,18.70
2023-05-04T07:08:56.512Z,18.70
2023-05-04T07:11:23.553Z,18.70
2023-05-04T07:13:50.441Z,18.70
2023-05-04T07:16:16.983Z,18.60
2023-05-04T07:18:43.600Z,18.60
2023-05-04T07:21:26.654Z,18.60
2023-05-04T07:23:54.958Z,18.60
2023-05-04T07:26:22.122Z,18.60
2023-05-04T07:28:48.735Z,18.60
2023-05-04T07:31:15.891Z,18.50
2023-05-04T07:33:42.608Z,18.60
2023-05-04T07:36:09.358Z,18.60
2023-05-04T07:38:36.354Z,18.60
2023-05-04T07:41:02.932Z,18.60
2023-05-04T07:43:29.543Z,18.60
2023-05-04T07:45:56.609Z,18.60
2023-05-04T07:48:25.242Z,18.60
2023-05-04T07:50:54.006Z,18.60
2023-05-04T07:53:20.919Z,18.60
2023-05-04T07:55:47.926Z,18.60
2023-05-04T07:58:16.459Z,18.60
2023-05-04T08:00:43.269Z,18.60
2023-05-04T08:03:10.118Z,18.60
2023-05-04T08:05:36.730Z,18.60
2023-05-04T08:08:03.588Z,18.60
2023-05-04T08:10:30.223Z,18.60
2023-05-04T08:12:56.946Z,18.60
2023-05-04T08:15:23.617Z,18.60
2023-05-04T08:17:50.529Z,18.70
2023-05-04T08:20:17.223Z,18.70
2023-05-04T08:22:43.851Z,18.70
2023-05-04T08:25:10.505Z,18.70
2023-05-04T08:27:37.255Z,18.70
2023-05-04T08:30:04.951Z,18.70
2023-05-04T08:32:33.256Z,18.70
2023-05-04T08:34:59.944Z,18.70
2023-05-04T08:37:26.544Z,18.80
2023-05-04T08:39:53.192Z,18.90
2023-05-04T08:42:28.958Z,18.90
2023-05-04T08:44:56.196Z,19.00
2023-05-04T08:47:23.176Z,18.90
2023-05-04T08:49:49.954Z,19.00
2023-05-04T08:52:16.929Z,19.10
2023-05-04T08:54:44.190Z,19.40
2023-05-04T08:57:11.838Z,19.10
2023-05-04T08:59:38.662Z,19.10
2023-05-04T09:02:05.664Z,19.10
2023-05-04T09:04:32.513Z,19.10
2023-05-04T09:06:59.156Z,19.10
2023-05-04T09:09:28.981Z,19.10
2023-05-04T09:11:55.752Z,19.10
2023-05-04T09:14:22.973Z,19.10
2023-05-04T09:16:49.676Z,19.10
2023-05-04T09:19:17.650Z,19.10
2023-05-04T09:21:44.366Z,19.00
2023-05-04T09:24:12.577Z,19.00
